Kezdőlap
METAR-TAF:

METAR-TAF

Repülőterek :

Valdivia, Chile

földrajzi szélesség: 39-37S, földrajzi hosszúság: 073-05W, magasság: 19 m

Jelenlegi meteorológiai megfigyelések

A jelentés 1 órával és 17 perccel ezelõtt készült, 22:00 UTC
Észak-északkeleti szél 3 kt
Hőmérséklet 9°C
Páratartalom 93%
Légköri nyomás 1015 hPa
Látótávolság: 9000 m
Borult 1300 lábon
enyhe záporok,

METAR: SCVD 192200Z 03003KT 9000 -SHRA OVC013 09/08 Q1015

Idő: 19:17 (23:17 UTC)


TAF: hiányzik

Meteorológiai megfigyelések és előrejelzések több, mint 4000 repülőtéren (METAR és TAF jelentéseket).

A térképen piros és sárga pontok jelzik az elérhető meteorológiai állomásokat.

Mozgassa az egeret a pont fölött, hogy megjelenjen az állomás neve.

Azután kattintson az időjárási megfigyelések és előrejelzések megtekintéséhez.

A térkép megváltoztatása: kattintson a fekete keresztel jelölt zöld gombra ráközelítéshez, a vonallal jelölt zöld gombra távolításhoz, vagy a zöld nyilakra a szomszédos térképek eléréséhez.


METAR-TAF: